Accueil
METAR-TAF:

METAR-TAF

Aéroports :

Londres Biggin Hill, Angleterre

Aérodrome de Londres Biggin Hill

latitude: 51-19N, longitude: 000-02E, altitude: 183 m

Observation

Le bulletin a été fait il y a 7 heures et 39 minutes, à 21:20 UTC
Vent 9 kt de sud
Température 5°C
Humidité 87%
Pression 1023 hPa
Visibilité 10 km ou plus
Nuages épars à une hauteur de 4000 ft

METAR: EGKB 172120Z 19009KT 9999 SCT040 05/03 Q1023

Heure: 04:59 (04:59 UTC)

Prévision

Le bulletin a été fait il y a 9 heures et 9 minutes, à 19:50 UTC
Prévision valable du 17 à 19 UTC au 17 à 22 UTC
Vent 7 kt de sud
Visibilité 10 km ou plus
Quelques nuages à une hauteur de 3000 ft
Probabilité 30%
du 17 à 21 UTC au 17 à 22 UTC
Visibilité: 8000 m

TAF: EGKB 171950Z 1719/1722 17007KT 9999 FEW030 PROB30 1721/1722 8000

Observations et prévisions météorologiques de plus de 4000 aéroports (messages METAR et TAF).

Les stations disponibles sont représentées par des disques jaunes et rouges sur la carte.

Passer la souris dessus pour voir le nom de la station.

Cliquer dessus pour voir les observations et prévisions météorologiques.

Pour changer de carte: cliquez sur les boutons verts avec une croix noire pour zoomer, sur le bouton vert avec un tiret pour effectuer un zoom arrière, ou sur les flèches vertes pour les cartes adjacentes.


METAR-TAF: